CheckWX is a tool to help pilots better visualize weather data.  It is not intended as a substitute for an official pre-flight weather briefing.

16:46:46 UTC

PANC METAR
Ted Stevens Anchorage International Airport
Anchorage, Alaska, USA
Current

54 mins ago

PANC 171553Z 02006KT 10SM BKN050 BKN070 BKN150 03/M01 A2905 RMK AO2 RAE52 SLP838 P0000 T00281011
Observed
Oct-17 @ 15:53 UTC
Wind
  • 020° at 6 KTS
Visibility
10 SM
Flight Rules
VFR
Cloud Levels
  • Broken at 5,000' AGL
  • Broken at 7,000' AGL
  • Broken at 15,000' AGL
Temperature
C / 37°F
Dewpoint
-1°C / 30°F
Humidity
75%
Altimeter
29.05" Hg
Pressure
983.72 hPa
Current Rain
0.01"
Previous

2 hours ago

PANC 171453Z 36005KT 10SM -RA BKN050 BKN070 BKN150 03/M01 A2905 RMK AO2 SLP838 P0000 60001 T00281011 58001
Observed
Oct-17 @ 14:53 UTC
Wind
  • 360° at 5 KTS
Visibility
10 SM
Flight Rules
VFR
Conditions
Light Rain
Cloud Levels
  • Broken at 5,000' AGL
  • Broken at 7,000' AGL
  • Broken at 15,000' AGL
Temperature
C / 37°F
Dewpoint
-1°C / 30°F
Humidity
75%
Altimeter
29.05" Hg
Pressure
983.72 hPa
Current Rain
0.01"
Previous

3 hours ago

PANC 171353Z 36006KT 10SM -RA OVC041 02/M01 A2905 RMK AO2 SLP839 P0001 T00221006
Observed
Oct-17 @ 13:53 UTC
Wind
  • 360° at 6 KTS
Visibility
10 SM
Flight Rules
VFR
Conditions
Light Rain
Cloud Levels
  • Overcast at 4,100' AGL
Temperature
C / 36°F
Dewpoint
-1°C / 30°F
Humidity
81%
Altimeter
29.05" Hg
Pressure
983.72 hPa
Current Rain
0.01"